sensor_id;sensor_type;location;lat;lon;timestamp;pressure;altitude;pressure_sealevel;temperature;humidity
13050;BME280;6591;51.446;5.404;2023-07-29T00:01:49;100399.47;;;24.10;54.17
13050;BME280;6591;51.446;5.404;2023-07-29T00:04:17;100399.97;;;24.14;54.00
13050;BME280;6591;51.446;5.404;2023-07-29T00:06:44;100401.50;;;24.16;54.20
13050;BME280;6591;51.446;5.404;2023-07-29T00:09:13;100407.63;;;24.18;54.35
13050;BME280;6591;51.446;5.404;2023-07-29T00:11:40;100413.59;;;24.22;54.23
13050;BME280;6591;51.446;5.404;2023-07-29T00:14:08;100406.97;;;24.24;54.11
13050;BME280;6591;51.446;5.404;2023-07-29T00:16:35;100407.50;;;24.28;54.07
13050;BME280;6591;51.446;5.404;2023-07-29T00:19:04;100411.72;;;24.30;54.24
13050;BME280;6591;51.446;5.404;2023-07-29T00:21:31;100409.69;;;24.32;54.30
13050;BME280;6591;51.446;5.404;2023-07-29T00:23:58;100406.78;;;24.34;54.46
13050;BME280;6591;51.446;5.404;2023-07-29T00:26:28;100402.06;;;24.36;54.02
13050;BME280;6591;51.446;5.404;2023-07-29T00:28:58;100402.75;;;24.38;54.34
13050;BME280;6591;51.446;5.404;2023-07-29T00:31:25;100398.66;;;24.42;54.30
13050;BME280;6591;51.446;5.404;2023-07-29T00:33:53;100392.03;;;24.44;54.77
13050;BME280;6591;51.446;5.404;2023-07-29T00:36:21;100391.03;;;24.45;54.41
13050;BME280;6591;51.446;5.404;2023-07-29T00:38:48;100387.13;;;24.48;54.37
13050;BME280;6591;51.446;5.404;2023-07-29T00:41:15;100370.84;;;24.48;54.50
13050;BME280;6591;51.446;5.404;2023-07-29T00:43:43;100376.28;;;24.48;54.48
13050;BME280;6591;51.446;5.404;2023-07-29T00:46:10;100379.31;;;24.45;54.77
13050;BME280;6591;51.446;5.404;2023-07-29T00:48:40;100383.88;;;24.44;54.28
13050;BME280;6591;51.446;5.404;2023-07-29T00:51:07;100375.75;;;24.44;54.54
13050;BME280;6591;51.446;5.404;2023-07-29T00:53:35;100361.69;;;24.41;54.62
13050;BME280;6591;51.446;5.404;2023-07-29T00:56:02;100359.13;;;24.39;54.91
13050;BME280;6591;51.446;5.404;2023-07-29T00:58:30;100376.09;;;24.41;54.99
13050;BME280;6591;51.446;5.404;2023-07-29T01:00:57;100367.94;;;24.41;54.44
13050;BME280;6591;51.446;5.404;2023-07-29T01:03:26;100367.94;;;24.41;55.03
13050;BME280;6591;51.446;5.404;2023-07-29T01:09:02;100373.22;;;24.35;55.21
13050;BME280;6591;51.446;5.404;2023-07-29T01:11:55;100374.91;;;24.36;55.29
13050;BME280;6591;51.446;5.404;2023-07-29T01:15:14;100379.50;;;24.27;55.30
13050;BME280;6591;51.446;5.404;2023-07-29T01:17:55;100366.28;;;24.32;55.10
13050;BME280;6591;51.446;5.404;2023-07-29T01:20:25;100380.50;;;24.34;55.17
13050;BME280;6591;51.446;5.404;2023-07-29T01:22:52;100373.56;;;24.32;55.32
13050;BME280;6591;51.446;5.404;2023-07-29T01:25:20;100379.84;;;24.32;55.22
13050;BME280;6591;51.446;5.404;2023-07-29T01:27:49;100373.72;;;24.30;55.07
13050;BME280;6591;51.446;5.404;2023-07-29T01:30:26;100380.50;;;24.26;55.50
13050;BME280;6591;51.446;5.404;2023-07-29T01:33:23;100387.13;;;24.24;54.95
13050;BME280;6591;51.446;5.404;2023-07-29T01:36:01;100387.13;;;24.24;55.51
13050;BME280;6591;51.446;5.404;2023-07-29T01:38:36;100390.88;;;24.23;55.55
13050;BME280;6591;51.446;5.404;2023-07-29T01:41:08;100392.72;;;24.22;55.70
13050;BME280;6591;51.446;5.404;2023-07-29T01:43:37;100397.47;;;24.20;55.70
13050;BME280;6591;51.446;5.404;2023-07-29T01:46:11;100396.78;;;24.18;55.80
13050;BME280;6591;51.446;5.404;2023-07-29T01:48:40;100391.50;;;24.17;55.29
13050;BME280;6591;51.446;5.404;2023-07-29T01:51:07;100397.25;;;24.14;55.36
13050;BME280;6591;51.446;5.404;2023-07-29T01:53:37;100393.69;;;24.13;55.32
13050;BME280;6591;51.446;5.404;2023-07-29T01:56:04;100396.75;;;24.10;55.22
13050;BME280;6591;51.446;5.404;2023-07-29T01:58:33;100397.75;;;24.09;55.45
13050;BME280;6591;51.446;5.404;2023-07-29T02:01:00;100396.91;;;24.08;55.43
13050;BME280;6591;51.446;5.404;2023-07-29T02:03:28;100393.19;;;24.10;55.44
13050;BME280;6591;51.446;5.404;2023-07-29T02:05:55;100394.72;;;24.12;55.21
13050;BME280;6591;51.446;5.404;2023-07-29T02:08:22;100392.16;;;24.11;55.11
13050;BME280;6591;51.446;5.404;2023-07-29T02:10:49;100391.31;;;24.10;55.05
13050;BME280;6591;51.446;5.404;2023-07-29T02:13:17;100392.00;;;24.12;54.74
13050;BME280;6591;51.446;5.404;2023-07-29T02:15:44;100387.75;;;24.10;54.82
13050;BME280;6591;51.446;5.404;2023-07-29T02:18:11;100376.06;;;24.09;54.95
13050;BME280;6591;51.446;5.404;2023-07-29T02:20:38;100375.03;;;24.10;54.59
13050;BME280;6591;51.446;5.404;2023-07-29T02:23:06;100369.78;;;24.08;54.55
13050;BME280;6591;51.446;5.404;2023-07-29T02:25:35;100370.97;;;24.06;54.77
13050;BME280;6591;51.446;5.404;2023-07-29T02:28:03;100369.97;;;24.07;54.26
13050;BME280;6591;51.446;5.404;2023-07-29T02:30:31;100374.69;;;24.05;54.66
13050;BME280;6591;51.446;5.404;2023-07-29T02:32:58;100371.28;;;24.03;54.35
13050;BME280;6591;51.446;5.404;2023-07-29T02:35:28;100377.06;;;24.00;54.33
13050;BME280;6591;51.446;5.404;2023-07-29T02:37:56;100382.84;;;23.97;54.42
13050;BME280;6591;51.446;5.404;2023-07-29T02:40:24;100374.31;;;23.92;54.24
13050;BME280;6591;51.446;5.404;2023-07-29T02:42:53;100374.66;;;23.89;54.27
13050;BME280;6591;51.446;5.404;2023-07-29T02:45:21;100374.16;;;23.85;54.27
13050;BME280;6591;51.446;5.404;2023-07-29T02:47:48;100365.84;;;23.79;54.32
13050;BME280;6591;51.446;5.404;2023-07-29T02:50:16;100365.47;;;23.74;54.55
13050;BME280;6591;51.446;5.404;2023-07-29T02:52:43;100373.78;;;23.72;54.13
13050;BME280;6591;51.446;5.404;2023-07-29T02:55:10;100362.41;;;23.69;54.24
13050;BME280;6591;51.446;5.404;2023-07-29T02:57:37;100359.34;;;23.63;54.54
13050;BME280;6591;51.446;5.404;2023-07-29T03:00:05;100361.38;;;23.61;53.99
13050;BME280;6591;51.446;5.404;2023-07-29T03:02:34;100369.84;;;23.58;54.22
13050;BME280;6591;51.446;5.404;2023-07-29T03:05:02;100372.88;;;23.55;54.16
13050;BME280;6591;51.446;5.404;2023-07-29T03:07:29;100364.38;;;23.50;54.06
13050;BME280;6591;51.446;5.404;2023-07-29T03:09:56;100364.56;;;23.49;54.27
13050;BME280;6591;51.446;5.404;2023-07-29T03:12:23;100366.91;;;23.44;54.51
13050;BME280;6591;51.446;5.404;2023-07-29T03:14:51;100359.06;;;23.41;54.16
13050;BME280;6591;51.446;5.404;2023-07-29T03:17:18;100363.97;;;23.37;54.40
13050;BME280;6591;51.446;5.404;2023-07-29T03:19:45;100371.59;;;23.34;54.35
13050;BME280;6591;51.446;5.404;2023-07-29T03:22:12;100377.34;;;23.31;54.35
13050;BME280;6591;51.446;5.404;2023-07-29T03:24:39;100377.81;;;23.26;53.93
13050;BME280;6591;51.446;5.404;2023-07-29T03:27:07;100377.13;;;23.24;54.28
13050;BME280;6591;51.446;5.404;2023-07-29T03:29:36;100385.59;;;23.21;54.43
13050;BME280;6591;51.446;5.404;2023-07-29T03:32:06;100378.47;;;23.20;54.45
13050;BME280;6591;51.446;5.404;2023-07-29T03:34:34;100376.94;;;23.17;54.53
13050;BME280;6591;51.446;5.404;2023-07-29T03:37:01;100374.53;;;23.14;54.50
13050;BME280;6591;51.446;5.404;2023-07-29T03:39:28;100373.88;;;23.12;54.65
13050;BME280;6591;51.446;5.404;2023-07-29T03:41:58;100376.75;;;23.11;54.74
13050;BME280;6591;51.446;5.404;2023-07-29T03:44:25;100384.34;;;23.07;54.81
13050;BME280;6591;51.446;5.404;2023-07-29T03:46:52;100384.50;;;23.06;54.52
13050;BME280;6591;51.446;5.404;2023-07-29T03:49:20;100382.13;;;23.03;54.43
13050;BME280;6591;51.446;5.404;2023-07-29T03:51:47;100375.16;;;23.00;54.84
13050;BME280;6591;51.446;5.404;2023-07-29T03:54:14;100366.50;;;22.97;54.63
13050;BME280;6591;51.446;5.404;2023-07-29T03:56:41;100358.69;;;22.94;54.88
13050;BME280;6591;51.446;5.404;2023-07-29T03:59:09;100341.78;;;22.92;54.55
13050;BME280;6591;51.446;5.404;2023-07-29T04:01:36;100340.06;;;22.91;54.43
13050;BME280;6591;51.446;5.404;2023-07-29T04:04:05;100346.63;;;22.88;54.87
13050;BME280;6591;51.446;5.404;2023-07-29T04:06:33;100341.56;;;22.85;54.90
13050;BME280;6591;51.446;5.404;2023-07-29T04:09:01;100336.44;;;22.82;54.95
13050;BME280;6591;51.446;5.404;2023-07-29T04:11:28;100337.63;;;22.79;55.01
13050;BME280;6591;51.446;5.404;2023-07-29T04:13:56;100333.22;;;22.78;54.84
13050;BME280;6591;51.446;5.404;2023-07-29T04:16:23;100338.78;;;22.77;54.84
13050;BME280;6591;51.446;5.404;2023-07-29T04:18:50;100357.06;;;22.75;54.82
13050;BME280;6591;51.446;5.404;2023-07-29T04:21:17;100369.91;;;22.73;54.83
13050;BME280;6591;51.446;5.404;2023-07-29T04:23:45;100378.22;;;22.71;55.39
13050;BME280;6591;51.446;5.404;2023-07-29T04:26:12;100373.06;;;22.68;55.08
13050;BME280;6591;51.446;5.404;2023-07-29T04:28:39;100382.19;;;22.67;55.23
13050;BME280;6591;51.446;5.404;2023-07-29T04:31:06;100387.78;;;22.66;55.28
13050;BME280;6591;51.446;5.404;2023-07-29T04:33:34;100382.03;;;22.69;55.61
13050;BME280;6591;51.446;5.404;2023-07-29T04:36:06;100379.31;;;22.69;55.55
13050;BME280;6591;51.446;5.404;2023-07-29T04:38:34;100395.28;;;22.72;55.33
13050;BME280;6591;51.446;5.404;2023-07-29T04:41:01;100401.38;;;22.74;55.48
13050;BME280;6591;51.446;5.404;2023-07-29T04:43:31;100400.25;;;22.76;55.70
13050;BME280;6591;51.446;5.404;2023-07-29T04:45:59;100398.72;;;22.82;56.03
13050;BME280;6591;51.446;5.404;2023-07-29T04:48:27;100396.56;;;22.86;55.87
13050;BME280;6591;51.446;5.404;2023-07-29T04:50:54;100399.81;;;22.89;55.82
13050;BME280;6591;51.446;5.404;2023-07-29T04:53:21;100399.31;;;22.94;55.51
13050;BME280;6591;51.446;5.404;2023-07-29T04:55:48;100396.13;;;22.98;55.75
13050;BME280;6591;51.446;5.404;2023-07-29T04:58:15;100399.53;;;23.00;55.80
13050;BME280;6591;51.446;5.404;2023-07-29T05:00:43;100406.31;;;23.04;55.94
13050;BME280;6591;51.446;5.404;2023-07-29T05:03:10;100400.59;;;23.07;55.46
13050;BME280;6591;51.446;5.404;2023-07-29T05:05:41;100410.09;;;23.11;55.41
13050;BME280;6591;51.446;5.404;2023-07-29T05:08:08;100415.03;;;23.16;55.53
13050;BME280;6591;51.446;5.404;2023-07-29T05:10:35;100421.66;;;23.21;55.77
13050;BME280;6591;51.446;5.404;2023-07-29T05:13:05;100411.53;;;23.23;55.25
13050;BME280;6591;51.446;5.404;2023-07-29T05:15:34;100417.31;;;23.29;55.48
13050;BME280;6591;51.446;5.404;2023-07-29T05:18:01;100423.94;;;23.34;55.83
13050;BME280;6591;51.446;5.404;2023-07-29T05:20:30;100429.03;;;23.37;55.83
13050;BME280;6591;51.446;5.404;2023-07-29T05:22:58;100409.91;;;23.39;55.31
13050;BME280;6591;51.446;5.404;2023-07-29T05:25:25;100403.44;;;23.40;55.16
13050;BME280;6591;51.446;5.404;2023-07-29T05:27:52;100410.41;;;23.42;55.19
13050;BME280;6591;51.446;5.404;2023-07-29T05:30:19;100413.97;;;23.43;54.88
13050;BME280;6591;51.446;5.404;2023-07-29T05:32:47;100416.69;;;23.43;54.91
13050;BME280;6591;51.446;5.404;2023-07-29T05:35:14;100419.56;;;23.41;54.90
13050;BME280;6591;51.446;5.404;2023-07-29T05:37:42;100420.25;;;23.43;55.12
13050;BME280;6591;51.446;5.404;2023-07-29T05:40:09;100414.13;;;23.41;55.15
13050;BME280;6591;51.446;5.404;2023-07-29T05:42:39;100413.81;;;23.44;55.17
13050;BME280;6591;51.446;5.404;2023-07-29T05:45:07;100403.53;;;23.48;55.33
13050;BME280;6591;51.446;5.404;2023-07-29T05:47:35;100407.59;;;23.52;55.20
13050;BME280;6591;51.446;5.404;2023-07-29T05:50:04;100410.53;;;23.58;55.29
13050;BME280;6591;51.446;5.404;2023-07-29T05:52:32;100409.53;;;23.68;55.66
13050;BME280;6591;51.446;5.404;2023-07-29T05:55:00;100417.38;;;23.79;55.61
13050;BME280;6591;51.446;5.404;2023-07-29T05:57:28;100407.38;;;23.87;55.64
13050;BME280;6591;51.446;5.404;2023-07-29T05:59:55;100409.63;;;24.00;55.74
13050;BME280;6591;51.446;5.404;2023-07-29T06:02:23;100408.09;;;24.14;55.71
13050;BME280;6591;51.446;5.404;2023-07-29T06:04:51;100412.72;;;24.29;55.28
13050;BME280;6591;51.446;5.404;2023-07-29T06:07:19;100402.56;;;24.39;55.17
13050;BME280;6591;51.446;5.404;2023-07-29T06:09:46;100401.06;;;24.53;55.21
13050;BME280;6591;51.446;5.404;2023-07-29T06:12:13;100401.03;;;24.69;55.26
13050;BME280;6591;51.446;5.404;2023-07-29T06:14:43;100398.63;;;24.82;55.28
13050;BME280;6591;51.446;5.404;2023-07-29T06:17:10;100411.22;;;25.00;55.15
13050;BME280;6591;51.446;5.404;2023-07-29T06:19:38;100412.88;;;25.17;54.79
13050;BME280;6591;51.446;5.404;2023-07-29T06:22:06;100402.44;;;25.28;54.63
13050;BME280;6591;51.446;5.404;2023-07-29T06:24:33;100393.91;;;25.40;54.22
13050;BME280;6591;51.446;5.404;2023-07-29T06:27:00;100401.34;;;25.54;53.92
13050;BME280;6591;51.446;5.404;2023-07-29T06:29:27;100403.03;;;25.63;53.18
13050;BME280;6591;51.446;5.404;2023-07-29T06:31:55;100413.00;;;25.70;52.96
13050;BME280;6591;51.446;5.404;2023-07-29T06:34:22;100403.97;;;25.78;53.03
13050;BME280;6591;51.446;5.404;2023-07-29T06:36:52;100413.13;;;25.85;53.04
13050;BME280;6591;51.446;5.404;2023-07-29T06:39:20;100408.28;;;25.95;52.90
13050;BME280;6591;51.446;5.404;2023-07-29T06:41:49;100403.47;;;26.05;52.48
13050;BME280;6591;51.446;5.404;2023-07-29T06:44:18;100404.72;;;26.17;52.55
13050;BME280;6591;51.446;5.404;2023-07-29T06:46:45;100412.50;;;26.29;52.30
13050;BME280;6591;51.446;5.404;2023-07-29T06:49:12;100412.47;;;26.37;51.96
13050;BME280;6591;51.446;5.404;2023-07-29T06:51:42;100420.56;;;26.45;51.76
13050;BME280;6591;51.446;5.404;2023-07-29T06:54:09;100423.22;;;26.53;52.30
13050;BME280;6591;51.446;5.404;2023-07-29T06:56:36;100428.22;;;26.64;51.87
13050;BME280;6591;51.446;5.404;2023-07-29T06:59:05;100428.34;;;26.71;51.70
13050;BME280;6591;51.446;5.404;2023-07-29T07:01:33;100426.75;;;26.76;51.22
13050;BME280;6591;51.446;5.404;2023-07-29T07:04:01;100428.56;;;26.84;51.35
13050;BME280;6591;51.446;5.404;2023-07-29T07:06:28;100418.28;;;26.94;51.62
13050;BME280;6591;51.446;5.404;2023-07-29T07:08:58;100430.22;;;27.08;51.05
13050;BME280;6591;51.446;5.404;2023-07-29T07:11:25;100427.03;;;27.19;50.94
13050;BME280;6591;51.446;5.404;2023-07-29T07:13:53;100427.03;;;27.33;50.96
13050;BME280;6591;51.446;5.404;2023-07-29T07:16:20;100427.41;;;27.45;50.94
13050;BME280;6591;51.446;5.404;2023-07-29T07:18:47;100431.41;;;27.57;51.06
13050;BME280;6591;51.446;5.404;2023-07-29T07:21:14;100435.31;;;27.69;50.54
13050;BME280;6591;51.446;5.404;2023-07-29T07:23:41;100427.13;;;27.84;50.60
13050;BME280;6591;51.446;5.404;2023-07-29T07:26:08;100436.56;;;28.03;50.14
13050;BME280;6591;51.446;5.404;2023-07-29T07:28:35;100434.94;;;28.23;50.08
13050;BME280;6591;51.446;5.404;2023-07-29T07:31:05;100436.56;;;28.39;49.68
13050;BME280;6591;51.446;5.404;2023-07-29T07:33:32;100445.75;;;28.52;48.95
13050;BME280;6591;51.446;5.404;2023-07-29T07:35:59;100452.78;;;28.61;48.28
13050;BME280;6591;51.446;5.404;2023-07-29T07:38:26;100444.19;;;28.64;47.80
13050;BME280;6591;51.446;5.404;2023-07-29T07:40:55;100444.84;;;28.67;48.28
13050;BME280;6591;51.446;5.404;2023-07-29T07:43:24;100444.84;;;28.67;47.79
13050;BME280;6591;51.446;5.404;2023-07-29T07:45:58;100446.91;;;28.64;47.82
13050;BME280;6591;51.446;5.404;2023-07-29T07:48:27;100447.94;;;28.63;47.40
13050;BME280;6591;51.446;5.404;2023-07-29T07:50:55;100453.22;;;28.65;47.74
13050;BME280;6591;51.446;5.404;2023-07-29T07:53:22;100454.19;;;28.72;47.26
13050;BME280;6591;51.446;5.404;2023-07-29T07:55:49;100454.69;;;28.82;47.93
13050;BME280;6591;51.446;5.404;2023-07-29T07:58:19;100454.00;;;29.01;47.55
13050;BME280;6591;51.446;5.404;2023-07-29T08:00:46;100452.47;;;29.20;47.35
13050;BME280;6591;51.446;5.404;2023-07-29T08:03:13;100453.25;;;29.42;47.38
13050;BME280;6591;51.446;5.404;2023-07-29T08:05:41;100449.19;;;29.66;47.11
13050;BME280;6591;51.446;5.404;2023-07-29T08:08:08;100453.28;;;29.89;47.16
13050;BME280;6591;51.446;5.404;2023-07-29T08:10:35;100447.06;;;30.09;46.60
13050;BME280;6591;51.446;5.404;2023-07-29T08:13:05;100455.13;;;30.23;46.07
13050;BME280;6591;51.446;5.404;2023-07-29T08:15:33;100447.97;;;30.36;45.43
13050;BME280;6591;51.446;5.404;2023-07-29T08:18:01;100455.78;;;30.45;45.05
13050;BME280;6591;51.446;5.404;2023-07-29T08:20:28;100454.78;;;30.53;44.64
13050;BME280;6591;51.446;5.404;2023-07-29T08:22:55;100457.50;;;30.53;44.78
13050;BME280;6591;51.446;5.404;2023-07-29T08:25:22;100460.69;;;30.50;44.00
13050;BME280;6591;51.446;5.404;2023-07-29T08:27:51;100461.69;;;30.42;44.21
13050;BME280;6591;51.446;5.404;2023-07-29T08:30:25;100468.41;;;30.33;43.62
13050;BME280;6591;51.446;5.404;2023-07-29T08:32:53;100453.41;;;30.22;43.49
13050;BME280;6591;51.446;5.404;2023-07-29T08:35:20;100462.22;;;30.11;43.17
13050;BME280;6591;51.446;5.404;2023-07-29T08:37:47;100460.09;;;30.00;43.52
13050;BME280;6591;51.446;5.404;2023-07-29T08:40:14;100459.22;;;29.93;43.88
13050;BME280;6591;51.446;5.404;2023-07-29T08:42:45;100454.34;;;29.88;44.18
13050;BME280;6591;51.446;5.404;2023-07-29T08:45:13;100448.66;;;29.90;43.92
13050;BME280;6591;51.446;5.404;2023-07-29T08:47:41;100454.16;;;29.90;44.20
13050;BME280;6591;51.446;5.404;2023-07-29T08:50:09;100453.75;;;29.93;44.24
13050;BME280;6591;51.446;5.404;2023-07-29T08:52:42;100450.41;;;29.98;44.22
13050;BME280;6591;51.446;5.404;2023-07-29T08:55:11;100452.13;;;30.12;44.54
13050;BME280;6591;51.446;5.404;2023-07-29T08:57:38;100451.13;;;30.33;44.39
13050;BME280;6591;51.446;5.404;2023-07-29T09:00:07;100451.63;;;30.56;44.23
13050;BME280;6591;51.446;5.404;2023-07-29T09:02:34;100438.34;;;30.79;43.72
13050;BME280;6591;51.446;5.404;2023-07-29T09:05:02;100437.91;;;31.02;44.05
13050;BME280;6591;51.446;5.404;2023-07-29T09:07:29;100443.41;;;31.28;44.01
13050;BME280;6591;51.446;5.404;2023-07-29T09:09:57;100445.84;;;31.63;43.95
13050;BME280;6591;51.446;5.404;2023-07-29T09:12:24;100447.84;;;31.93;42.89
13050;BME280;6591;51.446;5.404;2023-07-29T09:14:54;100442.25;;;32.20;42.01
13050;BME280;6591;51.446;5.404;2023-07-29T09:17:21;100441.69;;;32.43;41.96
13050;BME280;6591;51.446;5.404;2023-07-29T09:19:51;100432.22;;;32.70;41.60
13050;BME280;6591;51.446;5.404;2023-07-29T09:22:20;100434.50;;;32.98;41.06
13050;BME280;6591;51.446;5.404;2023-07-29T09:24:47;100431.09;;;33.27;40.93
13050;BME280;6591;51.446;5.404;2023-07-29T09:27:28;100429.09;;;33.52;40.56
13050;BME280;6591;51.446;5.404;2023-07-29T09:29:58;100437.06;;;33.79;40.43
13050;BME280;6591;51.446;5.404;2023-07-29T09:32:27;100442.09;;;34.00;39.56
13050;BME280;6591;51.446;5.404;2023-07-29T09:34:55;100436.53;;;34.18;39.07
13050;BME280;6591;51.446;5.404;2023-07-29T09:37:23;100427.75;;;34.28;38.54
13050;BME280;6591;51.446;5.404;2023-07-29T09:39:52;100431.00;;;34.36;38.62
13050;BME280;6591;51.446;5.404;2023-07-29T09:42:23;100433.53;;;34.38;37.91
13050;BME280;6591;51.446;5.404;2023-07-29T09:44:50;100438.66;;;34.34;37.89
13050;BME280;6591;51.446;5.404;2023-07-29T09:47:22;100444.81;;;34.18;37.41
13050;BME280;6591;51.446;5.404;2023-07-29T09:49:52;100447.63;;;34.00;37.59
13050;BME280;6591;51.446;5.404;2023-07-29T09:52:22;100456.22;;;33.74;36.92
13050;BME280;6591;51.446;5.404;2023-07-29T09:54:50;100447.00;;;33.43;37.50
13050;BME280;6591;51.446;5.404;2023-07-29T09:57:19;100450.03;;;33.17;37.47
13050;BME280;6591;51.446;5.404;2023-07-29T09:59:56;100446.44;;;32.92;37.65
13050;BME280;6591;51.446;5.404;2023-07-29T10:02:24;100445.69;;;32.78;38.41
13050;BME280;6591;51.446;5.404;2023-07-29T10:04:56;100444.28;;;32.62;37.73
13050;BME280;6591;51.446;5.404;2023-07-29T10:07:25;100441.19;;;32.52;38.64
13050;BME280;6591;51.446;5.404;2023-07-29T10:09:54;100434.47;;;32.48;38.75
13050;BME280;6591;51.446;5.404;2023-07-29T10:12:24;100428.34;;;32.46;38.59
13050;BME280;6591;51.446;5.404;2023-07-29T10:14:52;100435.91;;;32.51;38.85
13050;BME280;6591;51.446;5.404;2023-07-29T10:17:21;100437.56;;;32.58;39.43
13050;BME280;6591;51.446;5.404;2023-07-29T10:19:49;100433.50;;;32.67;38.78
13050;BME280;6591;51.446;5.404;2023-07-29T10:22:20;100433.41;;;32.81;38.85
13050;BME280;6591;51.446;5.404;2023-07-29T10:24:49;100435.19;;;32.93;39.02
13050;BME280;6591;51.446;5.404;2023-07-29T10:27:20;100425.75;;;33.07;38.38
13050;BME280;6591;51.446;5.404;2023-07-29T10:29:50;100432.53;;;33.30;39.12
13050;BME280;6591;51.446;5.404;2023-07-29T10:32:25;100428.88;;;33.54;38.38
13050;BME280;6591;51.446;5.404;2023-07-29T10:34:56;100426.91;;;33.79;38.39
13050;BME280;6591;51.446;5.404;2023-07-29T10:37:23;100423.88;;;33.99;38.03
13050;BME280;6591;51.446;5.404;2023-07-29T10:39:55;100412.06;;;34.10;37.27
13050;BME280;6591;51.446;5.404;2023-07-29T10:42:23;100416.19;;;34.19;37.51
13050;BME280;6591;51.446;5.404;2023-07-29T10:44:52;100421.41;;;34.27;36.60
13050;BME280;6591;51.446;5.404;2023-07-29T10:49:59;100405.13;;;34.37;36.73
13050;BME280;6591;51.446;5.404;2023-07-29T10:55:03;100415.66;;;34.40;36.15
13050;BME280;6591;51.446;5.404;2023-07-29T10:57:33;100412.63;;;34.30;35.98
13050;BME280;6591;51.446;5.404;2023-07-29T11:00:02;100410.72;;;34.13;35.40
13050;BME280;6591;51.446;5.404;2023-07-29T11:02:36;100414.84;;;33.92;36.13
13050;BME280;6591;51.446;5.404;2023-07-29T11:05:17;100412.16;;;33.67;35.93
13050;BME280;6591;51.446;5.404;2023-07-29T11:07:47;100415.69;;;33.56;35.83
13050;BME280;6591;51.446;5.404;2023-07-29T11:10:15;100416.09;;;33.41;36.14
13050;BME280;6591;51.446;5.404;2023-07-29T11:12:51;100421.13;;;33.26;36.37
13050;BME280;6591;51.446;5.404;2023-07-29T11:15:27;100410.66;;;33.10;36.22
13050;BME280;6591;51.446;5.404;2023-07-29T11:18:02;100413.09;;;33.00;36.34
13050;BME280;6591;51.446;5.404;2023-07-29T11:20:32;100411.88;;;32.96;36.50
13050;BME280;6591;51.446;5.404;2023-07-29T11:23:02;100421.50;;;32.87;37.25
13050;BME280;6591;51.446;5.404;2023-07-29T11:25:31;100420.22;;;32.58;37.97
13050;BME280;6591;51.446;5.404;2023-07-29T11:28:00;100424.47;;;32.22;38.57
13050;BME280;6591;51.446;5.404;2023-07-29T11:30:32;100417.44;;;31.88;39.58
13050;BME280;6591;51.446;5.404;2023-07-29T11:33:01;100418.63;;;31.61;40.10
13050;BME280;6591;51.446;5.404;2023-07-29T11:35:28;100414.44;;;31.45;40.80
13050;BME280;6591;51.446;5.404;2023-07-29T11:37:55;100410.41;;;31.41;41.29
13050;BME280;6591;51.446;5.404;2023-07-29T11:40:25;100409.53;;;31.54;42.91
13050;BME280;6591;51.446;5.404;2023-07-29T11:42:54;100409.47;;;31.80;42.71
13050;BME280;6591;51.446;5.404;2023-07-29T11:45:22;100420.25;;;32.20;42.80
13050;BME280;6591;51.446;5.404;2023-07-29T11:48:02;100405.31;;;32.72;42.71
13050;BME280;6591;51.446;5.404;2023-07-29T11:50:29;100403.38;;;33.22;42.67
13050;BME280;6591;51.446;5.404;2023-07-29T11:52:57;100404.56;;;33.69;41.05
13050;BME280;6591;51.446;5.404;2023-07-29T11:55:25;100382.81;;;34.09;40.77
13050;BME280;6591;51.446;5.404;2023-07-29T11:57:52;100389.00;;;34.34;39.84
13050;BME280;6591;51.446;5.404;2023-07-29T12:00:21;100394.22;;;34.42;38.62
13050;BME280;6591;51.446;5.404;2023-07-29T12:02:50;100393.31;;;34.30;37.18
13050;BME280;6591;51.446;5.404;2023-07-29T12:05:20;100405.34;;;34.06;38.14
13050;BME280;6591;51.446;5.404;2023-07-29T12:07:49;100430.09;;;33.58;38.42
13050;BME280;6591;51.446;5.404;2023-07-29T12:10:17;100429.59;;;32.82;39.48
13050;BME280;6591;51.446;5.404;2023-07-29T12:12:50;100409.19;;;31.88;41.00
13050;BME280;6591;51.446;5.404;2023-07-29T12:15:26;100443.19;;;30.90;42.06
13050;BME280;6591;51.446;5.404;2023-07-29T12:17:56;100447.44;;;29.99;42.67
13050;BME280;6591;51.446;5.404;2023-07-29T12:20:26;100440.19;;;29.16;44.20
13050;BME280;6591;51.446;5.404;2023-07-29T12:22:57;100440.31;;;28.52;45.38
13050;BME280;6591;51.446;5.404;2023-07-29T12:25:26;100438.00;;;27.99;46.38
13050;BME280;6591;51.446;5.404;2023-07-29T12:27:54;100443.63;;;27.61;47.41
13050;BME280;6591;51.446;5.404;2023-07-29T12:30:23;100440.22;;;27.30;48.25
13050;BME280;6591;51.446;5.404;2023-07-29T12:32:52;100457.66;;;27.06;49.55
13050;BME280;6591;51.446;5.404;2023-07-29T12:35:19;100503.00;;;26.84;49.65
13050;BME280;6591;51.446;5.404;2023-07-29T12:37:47;100514.44;;;26.57;50.40
13050;BME280;6591;51.446;5.404;2023-07-29T12:40:24;100493.22;;;26.22;50.49
13050;BME280;6591;51.446;5.404;2023-07-29T12:42:53;100489.63;;;25.90;50.69
13050;BME280;6591;51.446;5.404;2023-07-29T12:45:20;100483.09;;;25.60;51.47
13050;BME280;6591;51.446;5.404;2023-07-29T12:47:50;100497.91;;;25.42;52.46
13050;BME280;6591;51.446;5.404;2023-07-29T12:50:18;100484.84;;;25.29;52.98
13050;BME280;6591;51.446;5.404;2023-07-29T12:52:45;100475.72;;;25.22;54.02
13050;BME280;6591;51.446;5.404;2023-07-29T12:55:12;100477.06;;;25.18;54.37
13050;BME280;6591;51.446;5.404;2023-07-29T12:57:42;100475.38;;;25.17;54.70
13050;BME280;6591;51.446;5.404;2023-07-29T13:00:11;100473.16;;;25.20;55.46
13050;BME280;6591;51.446;5.404;2023-07-29T13:02:39;100472.47;;;25.26;56.08
13050;BME280;6591;51.446;5.404;2023-07-29T13:05:11;100469.03;;;25.41;56.53
13050;BME280;6591;51.446;5.404;2023-07-29T13:07:40;100472.22;;;25.60;57.54
13050;BME280;6591;51.446;5.404;2023-07-29T13:10:11;100473.63;;;25.87;57.92
13050;BME280;6591;51.446;5.404;2023-07-29T13:12:40;100466.69;;;26.15;58.07
13050;BME280;6591;51.446;5.404;2023-07-29T13:15:07;100476.72;;;26.46;58.60
13050;BME280;6591;51.446;5.404;2023-07-29T13:17:35;100470.00;;;26.79;58.97